sensor_id;sensor_type;location;lat;lon;timestamp;P1;durP1;ratioP1;P2;durP2;ratioP2
16693;SDS011;39538;52.196;9.892;2022-12-19T00:01:27;4.57;;;3.93;;
16693;SDS011;39538;52.196;9.892;2022-12-19T00:03:56;6.30;;;5.13;;
16693;SDS011;39538;52.196;9.892;2022-12-19T00:06:27;9.73;;;5.20;;
16693;SDS011;39538;52.196;9.892;2022-12-19T00:08:55;8.17;;;4.70;;
16693;SDS011;39538;52.196;9.892;2022-12-19T00:11:24;5.37;;;4.17;;
16693;SDS011;39538;52.196;9.892;2022-12-19T00:13:52;7.03;;;5.07;;
16693;SDS011;39538;52.196;9.892;2022-12-19T00:16:19;7.00;;;4.67;;
16693;SDS011;39538;52.196;9.892;2022-12-19T00:18:48;11.90;;;5.17;;
16693;SDS011;39538;52.196;9.892;2022-12-19T00:21:17;5.80;;;4.70;;
16693;SDS011;39538;52.196;9.892;2022-12-19T00:23:47;6.70;;;4.90;;
16693;SDS011;39538;52.196;9.892;2022-12-19T00:26:14;4.50;;;3.87;;
16693;SDS011;39538;52.196;9.892;2022-12-19T00:28:42;7.13;;;5.37;;
16693;SDS011;39538;52.196;9.892;2022-12-19T00:31:10;5.60;;;4.67;;
16693;SDS011;39538;52.196;9.892;2022-12-19T00:33:37;6.83;;;4.47;;
16693;SDS011;39538;52.196;9.892;2022-12-19T00:36:04;5.93;;;5.13;;
16693;SDS011;39538;52.196;9.892;2022-12-19T00:38:32;9.00;;;4.90;;
16693;SDS011;39538;52.196;9.892;2022-12-19T00:41:06;4.97;;;4.53;;
16693;SDS011;39538;52.196;9.892;2022-12-19T00:43:33;7.00;;;5.53;;
16693;SDS011;39538;52.196;9.892;2022-12-19T00:46:01;6.07;;;4.73;;
16693;SDS011;39538;52.196;9.892;2022-12-19T00:48:28;10.93;;;6.70;;
16693;SDS011;39538;52.196;9.892;2022-12-19T00:50:57;6.47;;;3.90;;
16693;SDS011;39538;52.196;9.892;2022-12-19T00:53:24;5.53;;;4.97;;
16693;SDS011;39538;52.196;9.892;2022-12-19T00:55:51;5.70;;;5.03;;
16693;SDS011;39538;52.196;9.892;2022-12-19T00:58:18;6.17;;;5.23;;
16693;SDS011;39538;52.196;9.892;2022-12-19T01:00:45;5.77;;;5.17;;
16693;SDS011;39538;52.196;9.892;2022-12-19T01:03:11;6.73;;;4.73;;
16693;SDS011;39538;52.196;9.892;2022-12-19T01:05:38;7.23;;;5.53;;
16693;SDS011;39538;52.196;9.892;2022-12-19T01:08:04;6.03;;;4.77;;
16693;SDS011;39538;52.196;9.892;2022-12-19T01:10:31;7.17;;;4.60;;
16693;SDS011;39538;52.196;9.892;2022-12-19T01:12:57;6.23;;;5.63;;
16693;SDS011;39538;52.196;9.892;2022-12-19T01:15:24;9.47;;;6.13;;
16693;SDS011;39538;52.196;9.892;2022-12-19T01:17:51;7.73;;;5.73;;
16693;SDS011;39538;52.196;9.892;2022-12-19T01:20:18;7.73;;;6.60;;
16693;SDS011;39538;52.196;9.892;2022-12-19T01:22:46;7.57;;;5.80;;
16693;SDS011;39538;52.196;9.892;2022-12-19T01:25:13;6.77;;;6.30;;
16693;SDS011;39538;52.196;9.892;2022-12-19T01:27:40;6.77;;;4.80;;
16693;SDS011;39538;52.196;9.892;2022-12-19T01:30:08;9.07;;;5.73;;
16693;SDS011;39538;52.196;9.892;2022-12-19T01:32:36;7.90;;;5.93;;
16693;SDS011;39538;52.196;9.892;2022-12-19T01:35:03;6.70;;;5.80;;
16693;SDS011;39538;52.196;9.892;2022-12-19T01:37:30;8.23;;;7.07;;
16693;SDS011;39538;52.196;9.892;2022-12-19T01:39:57;6.70;;;5.30;;
16693;SDS011;39538;52.196;9.892;2022-12-19T01:42:23;8.47;;;5.70;;
16693;SDS011;39538;52.196;9.892;2022-12-19T01:44:57;6.60;;;5.40;;
16693;SDS011;39538;52.196;9.892;2022-12-19T01:47:29;10.97;;;6.53;;
16693;SDS011;39538;52.196;9.892;2022-12-19T01:49:59;7.50;;;5.40;;
16693;SDS011;39538;52.196;9.892;2022-12-19T01:52:27;7.77;;;6.10;;
16693;SDS011;39538;52.196;9.892;2022-12-19T01:54:55;10.03;;;7.70;;
16693;SDS011;39538;52.196;9.892;2022-12-19T01:57:22;7.57;;;6.07;;
16693;SDS011;39538;52.196;9.892;2022-12-19T01:59:49;5.87;;;4.40;;
16693;SDS011;39538;52.196;9.892;2022-12-19T02:02:20;5.83;;;5.20;;
16693;SDS011;39538;52.196;9.892;2022-12-19T02:04:51;6.23;;;5.50;;
16693;SDS011;39538;52.196;9.892;2022-12-19T02:07:19;7.77;;;4.93;;
16693;SDS011;39538;52.196;9.892;2022-12-19T02:09:50;7.07;;;5.03;;
16693;SDS011;39538;52.196;9.892;2022-12-19T02:12:19;12.77;;;6.07;;
16693;SDS011;39538;52.196;9.892;2022-12-19T02:14:46;7.87;;;7.07;;
16693;SDS011;39538;52.196;9.892;2022-12-19T02:17:16;8.63;;;6.73;;
16693;SDS011;39538;52.196;9.892;2022-12-19T02:20:04;7.73;;;5.33;;
16693;SDS011;39538;52.196;9.892;2022-12-19T02:23:13;9.10;;;6.97;;
16693;SDS011;39538;52.196;9.892;2022-12-19T02:26:05;8.07;;;5.97;;
16693;SDS011;39538;52.196;9.892;2022-12-19T02:29:04;6.73;;;6.00;;
16693;SDS011;39538;52.196;9.892;2022-12-19T02:31:47;8.03;;;6.20;;
16693;SDS011;39538;52.196;9.892;2022-12-19T02:34:20;7.33;;;6.47;;
16693;SDS011;39538;52.196;9.892;2022-12-19T02:36:53;5.83;;;4.90;;
16693;SDS011;39538;52.196;9.892;2022-12-19T02:39:27;7.20;;;5.50;;
16693;SDS011;39538;52.196;9.892;2022-12-19T02:41:59;8.17;;;7.03;;
16693;SDS011;39538;52.196;9.892;2022-12-19T02:44:28;6.90;;;5.73;;
16693;SDS011;39538;52.196;9.892;2022-12-19T02:46:59;10.73;;;6.63;;
16693;SDS011;39538;52.196;9.892;2022-12-19T02:49:28;6.90;;;6.00;;
16693;SDS011;39538;52.196;9.892;2022-12-19T02:51:55;7.70;;;5.77;;
16693;SDS011;39538;52.196;9.892;2022-12-19T02:54:21;11.57;;;6.43;;
16693;SDS011;39538;52.196;9.892;2022-12-19T02:56:48;7.47;;;6.17;;
16693;SDS011;39538;52.196;9.892;2022-12-19T03:02:14;7.43;;;5.77;;
16693;SDS011;39538;52.196;9.892;2022-12-19T03:04:49;8.27;;;5.07;;
16693;SDS011;39538;52.196;9.892;2022-12-19T03:07:26;9.23;;;5.60;;
16693;SDS011;39538;52.196;9.892;2022-12-19T03:10:02;8.43;;;5.97;;
16693;SDS011;39538;52.196;9.892;2022-12-19T03:12:37;7.47;;;6.17;;
16693;SDS011;39538;52.196;9.892;2022-12-19T03:15:09;5.70;;;5.10;;
16693;SDS011;39538;52.196;9.892;2022-12-19T03:17:38;7.50;;;5.30;;
16693;SDS011;39538;52.196;9.892;2022-12-19T03:20:07;7.20;;;6.07;;
16693;SDS011;39538;52.196;9.892;2022-12-19T03:22:39;7.13;;;5.40;;
16693;SDS011;39538;52.196;9.892;2022-12-19T03:25:06;6.60;;;5.63;;
16693;SDS011;39538;52.196;9.892;2022-12-19T03:27:33;6.40;;;5.67;;
16693;SDS011;39538;52.196;9.892;2022-12-19T03:30:05;8.37;;;7.37;;
16693;SDS011;39538;52.196;9.892;2022-12-19T03:32:35;7.37;;;5.40;;
16693;SDS011;39538;52.196;9.892;2022-12-19T03:35:06;9.80;;;6.67;;
16693;SDS011;39538;52.196;9.892;2022-12-19T03:37:38;9.30;;;6.13;;
16693;SDS011;39538;52.196;9.892;2022-12-19T03:40:07;8.80;;;7.23;;
16693;SDS011;39538;52.196;9.892;2022-12-19T03:42:37;6.87;;;5.23;;
16693;SDS011;39538;52.196;9.892;2022-12-19T03:45:28;11.03;;;6.80;;
16693;SDS011;39538;52.196;9.892;2022-12-19T03:48:02;7.30;;;4.80;;
16693;SDS011;39538;52.196;9.892;2022-12-19T03:50:36;9.13;;;7.07;;
16693;SDS011;39538;52.196;9.892;2022-12-19T03:53:10;7.27;;;6.63;;
16693;SDS011;39538;52.196;9.892;2022-12-19T03:55:45;9.80;;;6.47;;
16693;SDS011;39538;52.196;9.892;2022-12-19T03:58:15;8.40;;;7.43;;
16693;SDS011;39538;52.196;9.892;2022-12-19T04:00:48;6.77;;;6.00;;
16693;SDS011;39538;52.196;9.892;2022-12-19T04:03:17;8.87;;;6.50;;
16693;SDS011;39538;52.196;9.892;2022-12-19T04:05:46;7.80;;;5.37;;
16693;SDS011;39538;52.196;9.892;2022-12-19T04:08:14;11.47;;;6.17;;
16693;SDS011;39538;52.196;9.892;2022-12-19T04:10:42;10.60;;;5.77;;
16693;SDS011;39538;52.196;9.892;2022-12-19T04:13:14;7.73;;;5.20;;
16693;SDS011;39538;52.196;9.892;2022-12-19T04:15:48;7.40;;;6.00;;
16693;SDS011;39538;52.196;9.892;2022-12-19T04:18:18;10.80;;;5.77;;
16693;SDS011;39538;52.196;9.892;2022-12-19T04:20:47;9.30;;;5.27;;
16693;SDS011;39538;52.196;9.892;2022-12-19T04:23:20;7.00;;;6.13;;
16693;SDS011;39538;52.196;9.892;2022-12-19T04:25:54;9.40;;;8.63;;
16693;SDS011;39538;52.196;9.892;2022-12-19T04:28:29;7.87;;;5.13;;
16693;SDS011;39538;52.196;9.892;2022-12-19T04:30:59;8.07;;;6.33;;
16693;SDS011;39538;52.196;9.892;2022-12-19T04:33:27;9.50;;;6.10;;
16693;SDS011;39538;52.196;9.892;2022-12-19T04:35:54;8.07;;;5.77;;
16693;SDS011;39538;52.196;9.892;2022-12-19T04:38:21;8.93;;;6.63;;
16693;SDS011;39538;52.196;9.892;2022-12-19T04:40:48;8.40;;;6.70;;
16693;SDS011;39538;52.196;9.892;2022-12-19T04:43:14;7.17;;;5.10;;
16693;SDS011;39538;52.196;9.892;2022-12-19T04:45:41;8.90;;;8.10;;
16693;SDS011;39538;52.196;9.892;2022-12-19T04:48:07;8.70;;;6.27;;
16693;SDS011;39538;52.196;9.892;2022-12-19T04:50:34;7.43;;;6.20;;
16693;SDS011;39538;52.196;9.892;2022-12-19T04:53:02;7.27;;;6.17;;
16693;SDS011;39538;52.196;9.892;2022-12-19T04:55:29;8.07;;;6.60;;
16693;SDS011;39538;52.196;9.892;2022-12-19T04:57:55;6.80;;;5.50;;
16693;SDS011;39538;52.196;9.892;2022-12-19T05:00:22;8.70;;;7.80;;
16693;SDS011;39538;52.196;9.892;2022-12-19T05:02:48;9.03;;;7.70;;
16693;SDS011;39538;52.196;9.892;2022-12-19T05:05:15;8.83;;;7.07;;
16693;SDS011;39538;52.196;9.892;2022-12-19T05:07:42;7.67;;;6.83;;
16693;SDS011;39538;52.196;9.892;2022-12-19T05:10:10;7.80;;;7.07;;
16693;SDS011;39538;52.196;9.892;2022-12-19T05:12:37;9.07;;;6.27;;
16693;SDS011;39538;52.196;9.892;2022-12-19T05:15:04;8.57;;;7.70;;
16693;SDS011;39538;52.196;9.892;2022-12-19T05:17:31;10.20;;;6.63;;
16693;SDS011;39538;52.196;9.892;2022-12-19T05:19:57;7.93;;;7.07;;
16693;SDS011;39538;52.196;9.892;2022-12-19T05:22:25;11.13;;;6.33;;
16693;SDS011;39538;52.196;9.892;2022-12-19T05:24:52;8.57;;;7.70;;
16693;SDS011;39538;52.196;9.892;2022-12-19T05:27:20;9.60;;;7.70;;
16693;SDS011;39538;52.196;9.892;2022-12-19T05:29:46;7.87;;;6.53;;
16693;SDS011;39538;52.196;9.892;2022-12-19T05:32:13;8.77;;;8.00;;
16693;SDS011;39538;52.196;9.892;2022-12-19T05:34:39;12.90;;;6.73;;
16693;SDS011;39538;52.196;9.892;2022-12-19T05:37:06;6.10;;;5.50;;
16693;SDS011;39538;52.196;9.892;2022-12-19T05:39:32;7.30;;;6.57;;
16693;SDS011;39538;52.196;9.892;2022-12-19T05:41:59;10.37;;;8.63;;
16693;SDS011;39538;52.196;9.892;2022-12-19T05:44:26;8.40;;;7.60;;
16693;SDS011;39538;52.196;9.892;2022-12-19T05:46:53;7.07;;;6.10;;
16693;SDS011;39538;52.196;9.892;2022-12-19T05:49:20;7.37;;;6.57;;
16693;SDS011;39538;52.196;9.892;2022-12-19T05:51:46;10.97;;;8.83;;
16693;SDS011;39538;52.196;9.892;2022-12-19T05:54:12;9.63;;;7.30;;
16693;SDS011;39538;52.196;9.892;2022-12-19T05:56:39;11.67;;;7.47;;
16693;SDS011;39538;52.196;9.892;2022-12-19T05:59:06;9.33;;;6.70;;
16693;SDS011;39538;52.196;9.892;2022-12-19T06:01:34;10.70;;;8.03;;
16693;SDS011;39538;52.196;9.892;2022-12-19T06:04:00;10.77;;;7.97;;
16693;SDS011;39538;52.196;9.892;2022-12-19T06:06:28;7.33;;;6.63;;
16693;SDS011;39538;52.196;9.892;2022-12-19T06:08:55;9.83;;;8.90;;
16693;SDS011;39538;52.196;9.892;2022-12-19T06:11:22;8.40;;;7.60;;
16693;SDS011;39538;52.196;9.892;2022-12-19T06:13:49;8.80;;;7.90;;
16693;SDS011;39538;52.196;9.892;2022-12-19T06:16:17;9.87;;;7.43;;
16693;SDS011;39538;52.196;9.892;2022-12-19T06:18:47;12.03;;;8.10;;
16693;SDS011;39538;52.196;9.892;2022-12-19T06:21:15;9.90;;;7.50;;
16693;SDS011;39538;52.196;9.892;2022-12-19T06:23:42;9.30;;;7.23;;
16693;SDS011;39538;52.196;9.892;2022-12-19T06:26:10;8.67;;;6.73;;
16693;SDS011;39538;52.196;9.892;2022-12-19T06:28:38;12.83;;;8.13;;
16693;SDS011;39538;52.196;9.892;2022-12-19T06:31:05;9.87;;;7.93;;
16693;SDS011;39538;52.196;9.892;2022-12-19T06:33:32;8.90;;;7.40;;
16693;SDS011;39538;52.196;9.892;2022-12-19T06:36:01;8.53;;;6.17;;
16693;SDS011;39538;52.196;9.892;2022-12-19T06:38:28;7.67;;;6.87;;
16693;SDS011;39538;52.196;9.892;2022-12-19T06:40:55;8.00;;;6.80;;
16693;SDS011;39538;52.196;9.892;2022-12-19T06:43:40;9.07;;;6.50;;
16693;SDS011;39538;52.196;9.892;2022-12-19T06:46:06;9.10;;;8.23;;
16693;SDS011;39538;52.196;9.892;2022-12-19T06:48:33;8.27;;;7.43;;
16693;SDS011;39538;52.196;9.892;2022-12-19T06:51:01;9.80;;;8.33;;
16693;SDS011;39538;52.196;9.892;2022-12-19T06:53:28;13.97;;;9.97;;
16693;SDS011;39538;52.196;9.892;2022-12-19T06:55:56;9.47;;;8.37;;
16693;SDS011;39538;52.196;9.892;2022-12-19T06:58:24;9.83;;;8.83;;
16693;SDS011;39538;52.196;9.892;2022-12-19T07:00:51;12.83;;;8.93;;
16693;SDS011;39538;52.196;9.892;2022-12-19T07:03:18;9.97;;;8.57;;
16693;SDS011;39538;52.196;9.892;2022-12-19T07:05:49;14.77;;;8.20;;
16693;SDS011;39538;52.196;9.892;2022-12-19T07:08:16;10.37;;;8.10;;
16693;SDS011;39538;52.196;9.892;2022-12-19T07:10:43;11.40;;;8.10;;
16693;SDS011;39538;52.196;9.892;2022-12-19T07:13:10;11.23;;;8.70;;
16693;SDS011;39538;52.196;9.892;2022-12-19T07:15:36;9.67;;;8.40;;
16693;SDS011;39538;52.196;9.892;2022-12-19T07:18:03;9.27;;;8.10;;
16693;SDS011;39538;52.196;9.892;2022-12-19T07:20:32;13.57;;;8.37;;
16693;SDS011;39538;52.196;9.892;2022-12-19T07:23:01;11.37;;;9.07;;
16693;SDS011;39538;52.196;9.892;2022-12-19T07:25:30;9.57;;;8.60;;
16693;SDS011;39538;52.196;9.892;2022-12-19T07:27:57;9.93;;;8.90;;
16693;SDS011;39538;52.196;9.892;2022-12-19T07:30:26;11.77;;;8.87;;
16693;SDS011;39538;52.196;9.892;2022-12-19T07:32:52;15.60;;;10.77;;
16693;SDS011;39538;52.196;9.892;2022-12-19T07:35:19;14.70;;;8.90;;
16693;SDS011;39538;52.196;9.892;2022-12-19T07:37:47;11.67;;;10.17;;
16693;SDS011;39538;52.196;9.892;2022-12-19T07:40:14;10.77;;;9.63;;
16693;SDS011;39538;52.196;9.892;2022-12-19T07:42:42;12.53;;;11.23;;
16693;SDS011;39538;52.196;9.892;2022-12-19T07:45:09;12.87;;;10.10;;
16693;SDS011;39538;52.196;9.892;2022-12-19T07:47:36;11.90;;;10.73;;
16693;SDS011;39538;52.196;9.892;2022-12-19T07:50:03;10.97;;;7.83;;
16693;SDS011;39538;52.196;9.892;2022-12-19T07:52:30;12.10;;;10.90;;
16693;SDS011;39538;52.196;9.892;2022-12-19T07:54:56;14.07;;;9.03;;
16693;SDS011;39538;52.196;9.892;2022-12-19T07:57:23;13.50;;;11.60;;
16693;SDS011;39538;52.196;9.892;2022-12-19T07:59:51;16.10;;;11.17;;
16693;SDS011;39538;52.196;9.892;2022-12-19T08:02:17;13.63;;;10.60;;
16693;SDS011;39538;52.196;9.892;2022-12-19T08:04:44;17.57;;;10.13;;
16693;SDS011;39538;52.196;9.892;2022-12-19T08:07:10;11.37;;;10.20;;
16693;SDS011;39538;52.196;9.892;2022-12-19T08:09:37;12.00;;;8.03;;
16693;SDS011;39538;52.196;9.892;2022-12-19T08:12:03;11.70;;;10.63;;
16693;SDS011;39538;52.196;9.892;2022-12-19T08:14:30;15.47;;;12.07;;
16693;SDS011;39538;52.196;9.892;2022-12-19T08:16:58;11.77;;;9.03;;
16693;SDS011;39538;52.196;9.892;2022-12-19T08:19:24;12.17;;;8.63;;
16693;SDS011;39538;52.196;9.892;2022-12-19T08:21:52;16.27;;;11.83;;
16693;SDS011;39538;52.196;9.892;2022-12-19T08:24:18;10.00;;;8.57;;
16693;SDS011;39538;52.196;9.892;2022-12-19T08:26:45;13.43;;;12.13;;
16693;SDS011;39538;52.196;9.892;2022-12-19T08:29:12;11.70;;;9.73;;
16693;SDS011;39538;52.196;9.892;2022-12-19T08:31:38;11.17;;;10.03;;
16693;SDS011;39538;52.196;9.892;2022-12-19T08:34:06;13.57;;;11.37;;
16693;SDS011;39538;52.196;9.892;2022-12-19T08:36:32;11.73;;;9.23;;
16693;SDS011;39538;52.196;9.892;2022-12-19T08:38:59;11.80;;;10.60;;
16693;SDS011;39538;52.196;9.892;2022-12-19T08:41:25;15.80;;;10.70;;
16693;SDS011;39538;52.196;9.892;2022-12-19T08:43:52;13.20;;;10.50;;
16693;SDS011;39538;52.196;9.892;2022-12-19T08:46:19;12.93;;;9.40;;
16693;SDS011;39538;52.196;9.892;2022-12-19T08:48:45;14.30;;;11.13;;
16693;SDS011;39538;52.196;9.892;2022-12-19T08:51:14;12.07;;;10.73;;
16693;SDS011;39538;52.196;9.892;2022-12-19T08:53:42;9.80;;;8.93;;
16693;SDS011;39538;52.196;9.892;2022-12-19T08:56:10;10.13;;;8.30;;
16693;SDS011;39538;52.196;9.892;2022-12-19T08:58:38;12.63;;;9.47;;
16693;SDS011;39538;52.196;9.892;2022-12-19T09:01:06;9.33;;;8.40;;
16693;SDS011;39538;52.196;9.892;2022-12-19T09:03:34;10.03;;;8.97;;
16693;SDS011;39538;52.196;9.892;2022-12-19T09:06:01;10.70;;;8.17;;
16693;SDS011;39538;52.196;9.892;2022-12-19T09:08:31;10.77;;;9.00;;
16693;SDS011;39538;52.196;9.892;2022-12-19T09:11:00;9.40;;;8.53;;
16693;SDS011;39538;52.196;9.892;2022-12-19T09:13:28;10.47;;;9.33;;
16693;SDS011;39538;52.196;9.892;2022-12-19T09:15:59;8.47;;;7.57;;
16693;SDS011;39538;52.196;9.892;2022-12-19T09:18:26;12.17;;;8.07;;
16693;SDS011;39538;52.196;9.892;2022-12-19T09:20:53;8.37;;;7.27;;
16693;SDS011;39538;52.196;9.892;2022-12-19T09:23:20;7.70;;;6.90;;
16693;SDS011;39538;52.196;9.892;2022-12-19T09:25:48;8.27;;;6.97;;
16693;SDS011;39538;52.196;9.892;2022-12-19T09:28:15;8.40;;;7.60;;
16693;SDS011;39538;52.196;9.892;2022-12-19T09:30:45;8.27;;;7.33;;
16693;SDS011;39538;52.196;9.892;2022-12-19T09:33:22;9.53;;;7.70;;
16693;SDS011;39538;52.196;9.892;2022-12-19T09:35:49;7.33;;;6.53;;
16693;SDS011;39538;52.196;9.892;2022-12-19T09:38:16;8.03;;;7.23;;
16693;SDS011;39538;52.196;9.892;2022-12-19T09:40:47;6.97;;;6.37;;
16693;SDS011;39538;52.196;9.892;2022-12-19T09:43:27;7.57;;;6.80;;
16693;SDS011;39538;52.196;9.892;2022-12-19T09:46:06;8.60;;;7.23;;
16693;SDS011;39538;52.196;9.892;2022-12-19T09:48:40;7.03;;;6.33;;
16693;SDS011;39538;52.196;9.892;2022-12-19T09:51:08;8.60;;;7.80;;
16693;SDS011;39538;52.196;9.892;2022-12-19T09:53:41;7.77;;;7.03;;
16693;SDS011;39538;52.196;9.892;2022-12-19T09:56:18;7.07;;;6.43;;
16693;SDS011;39538;52.196;9.892;2022-12-19T09:58:45;8.60;;;6.20;;
16693;SDS011;39538;52.196;9.892;2022-12-19T10:01:16;8.77;;;8.03;;
16693;SDS011;39538;52.196;9.892;2022-12-19T10:03:47;7.33;;;6.63;;
16693;SDS011;39538;52.196;9.892;2022-12-19T10:06:20;6.97;;;6.27;;
16693;SDS011;39538;52.196;9.892;2022-12-19T10:08:48;9.37;;;8.57;;
16693;SDS011;39538;52.196;9.892;2022-12-19T10:11:21;6.67;;;6.03;;
16693;SDS011;39538;52.196;9.892;2022-12-19T10:14:01;8.70;;;7.97;;
16693;SDS011;39538;52.196;9.892;2022-12-19T10:16:42;9.47;;;7.03;;
16693;SDS011;39538;52.196;9.892;2022-12-19T10:19:17;8.33;;;7.20;;
16693;SDS011;39538;52.196;9.892;2022-12-19T10:21:56;9.60;;;8.60;;
16693;SDS011;39538;52.196;9.892;2022-12-19T10:27:33;9.50;;;8.43;;
16693;SDS011;39538;52.196;9.892;2022-12-19T10:30:09;13.73;;;10.73;;
16693;SDS011;39538;52.196;9.892;2022-12-19T10:32:39;10.00;;;8.80;;
16693;SDS011;39538;52.196;9.892;2022-12-19T10:35:16;15.57;;;8.87;;
16693;SDS011;39538;52.196;9.892;2022-12-19T10:37:46;17.23;;;9.27;;
16693;SDS011;39538;52.196;9.892;2022-12-19T10:40:19;11.63;;;9.40;;
16693;SDS011;39538;52.196;9.892;2022-12-19T10:42:53;12.87;;;9.53;;
16693;SDS011;39538;52.196;9.892;2022-12-19T10:45:23;10.67;;;9.20;;
16693;SDS011;39538;52.196;9.892;2022-12-19T10:47:58;12.20;;;8.37;;
16693;SDS011;39538;52.196;9.892;2022-12-19T10:50:26;11.37;;;10.17;;
16693;SDS011;39538;52.196;9.892;2022-12-19T10:52:56;12.80;;;9.40;;
16693;SDS011;39538;52.196;9.892;2022-12-19T10:55:33;10.90;;;8.27;;
16693;SDS011;39538;52.196;9.892;2022-12-19T10:58:13;11.90;;;10.73;;
16693;SDS011;39538;52.196;9.892;2022-12-19T11:00:45;11.47;;;10.47;;
16693;SDS011;39538;52.196;9.892;2022-12-19T11:03:21;10.77;;;7.43;;
16693;SDS011;39538;52.196;9.892;2022-12-19T11:05:48;12.50;;;9.70;;
16693;SDS011;39538;52.196;9.892;2022-12-19T11:08:17;12.07;;;11.00;;
16693;SDS011;39538;52.196;9.892;2022-12-19T11:10:47;11.43;;;10.33;;
16693;SDS011;39538;52.196;9.892;2022-12-19T11:13:20;14.93;;;11.83;;
16693;SDS011;39538;52.196;9.892;2022-12-19T11:15:49;12.90;;;11.83;;
16693;SDS011;39538;52.196;9.892;2022-12-19T11:18:16;17.67;;;13.90;;
16693;SDS011;39538;52.196;9.892;2022-12-19T11:20:52;11.93;;;10.83;;
16693;SDS011;39538;52.196;9.892;2022-12-19T11:23:20;15.03;;;10.63;;
16693;SDS011;39538;52.196;9.892;2022-12-19T11:25:53;12.03;;;10.83;;
16693;SDS011;39538;52.196;9.892;2022-12-19T11:28:24;15.33;;;11.97;;
16693;SDS011;39538;52.196;9.892;2022-12-19T11:30:55;12.20;;;10.50;;
16693;SDS011;39538;52.196;9.892;2022-12-19T11:33:25;10.67;;;9.60;;
16693;SDS011;39538;52.196;9.892;2022-12-19T11:35:53;15.53;;;11.20;;
16693;SDS011;39538;52.196;9.892;2022-12-19T11:38:25;13.27;;;10.87;;
16693;SDS011;39538;52.196;9.892;2022-12-19T11:41:01;16.37;;;11.23;;
16693;SDS011;39538;52.196;9.892;2022-12-19T11:43:33;13.30;;;12.00;;
16693;SDS011;39538;52.196;9.892;2022-12-19T11:46:05;15.77;;;12.00;;
16693;SDS011;39538;52.196;9.892;2022-12-19T11:48:37;13.40;;;11.50;;
16693;SDS011;39538;52.196;9.892;2022-12-19T11:51:13;14.07;;;12.63;;
16693;SDS011;39538;52.196;9.892;2022-12-19T11:53:46;14.03;;;12.67;;
16693;SDS011;39538;52.196;9.892;2022-12-19T11:56:21;16.20;;;12.07;;
16693;SDS011;39538;52.196;9.892;2022-12-19T11:58:52;12.10;;;11.00;;
16693;SDS011;39538;52.196;9.892;2022-12-19T12:01:27;12.17;;;10.97;;
16693;SDS011;39538;52.196;9.892;2022-12-19T12:04:14;14.30;;;12.23;;
16693;SDS011;39538;52.196;9.892;2022-12-19T12:07:01;13.30;;;10.87;;
16693;SDS011;39538;52.196;9.892;2022-12-19T12:09:31;15.47;;;10.93;;
16693;SDS011;39538;52.196;9.892;2022-12-19T12:12:04;16.43;;;12.70;;
16693;SDS011;39538;52.196;9.892;2022-12-19T12:14:46;12.53;;;11.30;;
16693;SDS011;39538;52.196;9.892;2022-12-19T12:17:27;17.30;;;13.83;;
16693;SDS011;39538;52.196;9.892;2022-12-19T12:20:09;13.07;;;11.70;;
16693;SDS011;39538;52.196;9.892;2022-12-19T12:25:36;16.47;;;12.97;;
16693;SDS011;39538;52.196;9.892;2022-12-19T12:28:39;13.90;;;11.77;;
16693;SDS011;39538;52.196;9.892;2022-12-19T12:31:19;11.47;;;9.93;;
16693;SDS011;39538;52.196;9.892;2022-12-19T12:33:59;12.97;;;11.67;;
16693;SDS011;39538;52.196;9.892;2022-12-19T12:36:34;12.00;;;10.70;;
16693;SDS011;39538;52.196;9.892;2022-12-19T12:39:10;13.20;;;11.90;;
16693;SDS011;39538;52.196;9.892;2022-12-19T12:41:43;13.10;;;9.93;;
16693;SDS011;39538;52.196;9.892;2022-12-19T12:44:30;13.80;;;10.97;;
16693;SDS011;39538;52.196;9.892;2022-12-19T12:47:01;11.53;;;10.20;;
16693;SDS011;39538;52.196;9.892;2022-12-19T12:49:36;14.60;;;11.27;;
16693;SDS011;39538;52.196;9.892;2022-12-19T12:52:08;9.70;;;8.80;;
16693;SDS011;39538;52.196;9.892;2022-12-19T12:54:39;14.13;;;12.73;;
16693;SDS011;39538;52.196;9.892;2022-12-19T12:57:14;11.47;;;10.37;;
16693;SDS011;39538;52.196;9.892;2022-12-19T12:59:44;18.67;;;9.90;;
16693;SDS011;39538;52.196;9.892;2022-12-19T13:02:14;13.23;;;9.93;;
16693;SDS011;39538;52.196;9.892;2022-12-19T13:04:53;16.43;;;11.00;;
16693;SDS011;39538;52.196;9.892;2022-12-19T13:07:29;19.23;;;11.47;;
16693;SDS011;39538;52.196;9.892;2022-12-19T13:10:14;11.87;;;10.77;;
16693;SDS011;39538;52.196;9.892;2022-12-19T13:12:59;10.70;;;9.60;;
16693;SDS011;39538;52.196;9.892;2022-12-19T13:15:35;12.10;;;9.70;;
16693;SDS011;39538;52.196;9.892;2022-12-19T13:18:27;16.20;;;12.43;;
16693;SDS011;39538;52.196;9.892;2022-12-19T13:20:56;17.40;;;10.13;;
16693;SDS011;39538;52.196;9.892;2022-12-19T13:23:43;10.13;;;9.23;;
16693;SDS011;39538;52.196;9.892;2022-12-19T13:29:25;12.77;;;10.17;;
16693;SDS011;39538;52.196;9.892;2022-12-19T13:32:06;12.63;;;10.17;;
16693;SDS011;39538;52.196;9.892;2022-12-19T13:34:38;11.83;;;10.73;;
16693;SDS011;39538;52.196;9.892;2022-12-19T13:37:21;13.80;;;11.43;;
16693;SDS011;39538;52.196;9.892;2022-12-19T13:40:05;9.97;;;8.97;;
16693;SDS011;39538;52.196;9.892;2022-12-19T13:42:38;14.47;;;10.23;;
16693;SDS011;39538;52.196;9.892;2022-12-19T13:45:34;13.80;;;9.53;;
16693;SDS011;39538;52.196;9.892;2022-12-19T13:48:03;10.10;;;9.07;;
16693;SDS011;39538;52.196;9.892;2022-12-19T13:50:35;16.53;;;11.43;;
16693;SDS011;39538;52.196;9.892;2022-12-19T13:53:07;9.37;;;8.37;;
16693;SDS011;39538;52.196;9.892;2022-12-19T13:55:37;11.60;;;10.40;;
16693;SDS011;39538;52.196;9.892;2022-12-19T13:58:04;11.57;;;10.47;;
16693;SDS011;39538;52.196;9.892;2022-12-19T14:00:33;12.53;;;10.47;;
16693;SDS011;39538;52.196;9.892;2022-12-19T14:03:01;10.80;;;9.83;;
16693;SDS011;39538;52.196;9.892;2022-12-19T14:05:29;9.97;;;9.00;;
16693;SDS011;39538;52.196;9.892;2022-12-19T14:08:00;9.97;;;8.97;;
16693;SDS011;39538;52.196;9.892;2022-12-19T14:10:28;11.77;;;8.37;;
16693;SDS011;39538;52.196;9.892;2022-12-19T14:12:58;11.33;;;9.83;;
16693;SDS011;39538;52.196;9.892;2022-12-19T14:15:46;11.43;;;10.30;;
16693;SDS011;39538;52.196;9.892;2022-12-19T14:18:17;8.97;;;8.17;;
16693;SDS011;39538;52.196;9.892;2022-12-19T14:20:47;12.03;;;10.17;;
16693;SDS011;39538;52.196;9.892;2022-12-19T14:23:14;12.13;;;9.30;;
16693;SDS011;39538;52.196;9.892;2022-12-19T14:25:41;11.57;;;9.53;;
16693;SDS011;39538;52.196;9.892;2022-12-19T14:30:39;14.60;;;9.25;;
16693;SDS011;39538;52.196;9.892;2022-12-19T14:33:10;12.00;;;9.07;;
16693;SDS011;39538;52.196;9.892;2022-12-19T14:35:42;12.17;;;11.07;;
16693;SDS011;39538;52.196;9.892;2022-12-19T14:38:14;11.07;;;9.63;;
16693;SDS011;39538;52.196;9.892;2022-12-19T14:40:43;16.20;;;10.67;;
16693;SDS011;39538;52.196;9.892;2022-12-19T14:43:12;9.00;;;8.20;;
16693;SDS011;39538;52.196;9.892;2022-12-19T14:46:12;11.20;;;10.00;;
16693;SDS011;39538;52.196;9.892;2022-12-19T14:48:50;9.37;;;8.53;;
16693;SDS011;39538;52.196;9.892;2022-12-19T14:51:21;8.93;;;8.00;;
16693;SDS011;39538;52.196;9.892;2022-12-19T14:54:02;10.57;;;9.23;;
16693;SDS011;39538;52.196;9.892;2022-12-19T14:56:42;11.53;;;8.80;;
16693;SDS011;39538;52.196;9.892;2022-12-19T14:59:16;12.03;;;10.83;;
16693;SDS011;39538;52.196;9.892;2022-12-19T15:01:51;8.23;;;7.43;;
16693;SDS011;39538;52.196;9.892;2022-12-19T15:04:20;17.70;;;15.00;;
16693;SDS011;39538;52.196;9.892;2022-12-19T15:06:51;42.70;;;27.63;;
16693;SDS011;39538;52.196;9.892;2022-12-19T15:09:22;13.87;;;11.70;;
16693;SDS011;39538;52.196;9.892;2022-12-19T15:11:52;14.50;;;11.40;;
16693;SDS011;39538;52.196;9.892;2022-12-19T15:14:40;17.60;;;9.93;;